首页
METAR-TAF:

METAR-TAF

机场 :

库格鲁克图克, 努那武特, 加拿大

纬度: 67-49N, 经度: 115-08W, 海拔: 22米

当前天气观测

该预报发布于14分钟前的03:09 UTC
风速12节,风向
温度 -10°C
湿度 79%
气压 1026 hPa
能見度: 1.6公里
小雪, 低吹雪

METAR: CYCO 040309Z 10012KT 1SM -SN DRSN VV013 M10/M13 A3030 RMK SN8 SLP266

时间: 21:23 (03:23 UTC)

预报

该预报发布于2小时和45分钟前的00:38 UTC
预报有效从04日的 01点(UTC)到 04日的 13点(UTC)
风速18节,风向
能見度: 9.7公里
散云层高于2000英尺
多云层高于5000英尺
小雪, 高吹雪
短暂存在
从 04日的 01点(UTC)到 04日的 05点(UTC)
能見度: 3.2公里
多云层高于2000英尺
阴天层高于5000英尺
轻雾, 高吹雪
从 04日的 0500点(UTC)
风速12节,风向东转东南
能見度: 9.7公里
散云层高于2000英尺
多云层高于4000英尺
小雪
短暂存在
从 04日的 05点(UTC)到 04日的 13点(UTC)
能見度: 3.2公里
多云层高于2000英尺
阴天层高于4000英尺
小雪

TAF: CYCO 040038Z 0401/0413 10018KT 6SM -SN BLSN SCT020 BKN050 TEMPO 0401/0405 2SM BR BLSN BKN020 OVC050 FM040500 11012KT 6SM -SN SCT020 BKN040 TEMPO 0405/0413 2SM -SN BKN020 OVC040 RMK NXT FCST BY 040700Z

超过4000个机场的气象观测和天气预报(METAR&TAF报告)。

可查询的气象台以黄色和红色小点在地图上表示。

将鼠标移到小点上方,可查看气象台名称。

然后点击查看天气观测和预报。

如需切换地图:点击带黑十字的绿色按钮放大地图;点击带横线的绿色按钮缩小地图;或者点击绿色箭头查看邻近地区的地图。


METAR-TAF: